Terminal Aerodrome Forecast
Issued by NWS Pocatello, ID

Home | Current Version | Previous Version | Text Only | Print | Product List | Glossary On
Versions: 1 2 3 4 5 6 7 8 9 10 11 12 13 14 15 16 17 18 19 20
768
FTUS45 KPIH 231120
TAFBYI
TAF
KBYI 231120Z 2312/2412 VRB05KT P6SM VCSH SCT030 BKN070 OVC100
     FM231700 27011KT 6SM -SN SCT015 OVC025
     FM232100 27015G25KT 4SM -SN BR SCT008 OVC015
      TEMPO 2323/2403 1SM -SN BR SCT005 OVC008=

USA.gov is the U.S. government's official web portal to all federal, state and local government web resources and services.